Time;durP1;ratioP1;P1;durP2;ratioP2;P2;SDS_P1;SDS_P2;PMS_P1;PMS_P2;Temp;Humidity;BMP_temperature;BMP_pressure;BME280_temperature;BME280_humidity;BME280_pressure;Samples;Min_cycle;Max_cycle;Signal;HPM_P1;HPM_P2
2021/01/11 00:00:58;;;;;;;;;;;22.90;40.50;;;;;;1531768;77;940;-69
2021/01/11 00:03:00;;;;;;;;;;;22.90;40.60;;;;;;1525199;77;778;-69
2021/01/11 00:05:02;;;;;;;;;;;22.80;40.70;;;;;;1535445;77;791;-69
2021/01/11 00:07:04;;;;;;;;;;;22.70;40.70;;;;;;1528586;77;755;-69
2021/01/11 00:09:06;;;;;;;;;;;22.80;40.70;;;;;;1523229;77;1170;-69
2021/01/11 00:11:08;;;;;;;;;;;22.80;40.60;;;;;;1527334;76;856;-69
2021/01/11 00:13:09;;;;;;;;;;;22.80;40.50;;;;;;1527202;77;1947;-72
2021/01/11 00:15:12;;;;;;;;;;;22.90;40.50;;;;;;1528171;77;722;-69
2021/01/11 00:17:14;;;;;;;;;;;22.90;40.20;;;;;;1531128;77;739;-68
2021/01/11 00:19:16;;;;;;;;;;;22.90;40.00;;;;;;1530382;76;1162;-68
2021/01/11 00:21:18;;;;;;;;;;;22.90;39.80;;;;;;1534713;77;735;-69
2021/01/11 00:23:20;;;;;;;;;;;22.90;39.50;;;;;;1529141;76;754;-69
2021/01/11 00:25:21;;;;;;;;;;;23.00;39.50;;;;;;1525998;77;766;-65
2021/01/11 00:27:23;;;;;;;;;;;22.90;39.40;;;;;;1530497;77;770;-68
2021/01/11 00:29:25;;;;;;;;;;;22.90;39.20;;;;;;1531209;77;1147;-68
2021/01/11 00:31:27;;;;;;;;;;;23.00;39.10;;;;;;1531384;77;813;-68
2021/01/11 00:33:29;;;;;;;;;;;23.00;39.00;;;;;;1527056;77;1933;-68
2021/01/11 00:35:31;;;;;;;;;;;23.00;38.80;;;;;;1523611;77;796;-67
2021/01/11 00:37:33;;;;;;;;;;;23.00;38.70;;;;;;1532103;77;668;-68
2021/01/11 00:39:35;;;;;;;;;;;22.90;38.70;;;;;;1534076;77;1119;-68
2021/01/11 00:41:37;;;;;;;;;;;22.90;38.70;;;;;;1531967;77;833;-69
2021/01/11 00:43:39;;;;;;;;;;;23.00;38.70;;;;;;1534206;77;811;-69
2021/01/11 00:45:41;;;;;;;;;;;23.00;38.60;;;;;;1537929;76;792;-68
2021/01/11 00:47:43;;;;;;;;;;;23.00;38.50;;;;;;1535749;77;744;-68
2021/01/11 00:49:45;;;;;;;;;;;23.00;38.40;;;;;;1535907;77;1246;-68
2021/01/11 00:51:46;;;;;;;;;;;23.00;38.40;;;;;;1536039;77;1959;-68
2021/01/11 00:53:48;;;;;;;;;;;23.00;38.30;;;;;;1526581;77;803;-69
2021/01/11 00:55:50;;;;;;;;;;;23.00;38.20;;;;;;1527513;77;789;-68
2021/01/11 00:57:52;;;;;;;;;;;23.00;38.20;;;;;;1533826;77;698;-68
2021/01/11 00:59:54;;;;;;;;;;;23.00;38.20;;;;;;1526483;77;1175;-71
2021/01/11 01:02:01;;;;;;;;;;;23.00;38.10;;;;;;1531732;76;735;-69
2021/01/11 01:03:59;;;;;;;;;;;23.00;38.10;;;;;;1533147;77;1539;-68
2021/01/11 01:06:01;;;;;;;;;;;22.90;38.00;;;;;;1529804;77;794;-67
2021/01/11 01:08:03;;;;;;;;;;;23.00;37.80;;;;;;1533654;77;742;-68
2021/01/11 01:10:05;;;;;;;;;;;22.90;38.00;;;;;;1535775;77;1077;-68
2021/01/11 01:12:07;;;;;;;;;;;22.90;37.80;;;;;;1535793;77;1929;-68
2021/01/11 01:14:10;;;;;;;;;;;23.00;37.90;;;;;;1532458;76;865;-68
2021/01/11 01:16:11;;;;;;;;;;;23.00;37.80;;;;;;1526570;77;751;-68
2021/01/11 01:18:13;;;;;;;;;;;23.00;37.70;;;;;;1534281;77;1079;-69
2021/01/11 01:20:15;;;;;;;;;;;23.00;37.80;;;;;;1532001;77;764;-69
2021/01/11 01:22:17;;;;;;;;;;;23.00;37.70;;;;;;1533557;77;801;-69
2021/01/11 01:24:19;;;;;;;;;;;23.00;37.60;;;;;;1528336;76;834;-69
2021/01/11 01:26:21;;;;;;;;;;;23.00;37.60;;;;;;1529748;77;762;-67
2021/01/11 01:28:23;;;;;;;;;;;23.00;37.50;;;;;;1532444;76;1158;-71
2021/01/11 01:30:25;;;;;;;;;;;23.00;37.50;;;;;;1530001;77;752;-69
2021/01/11 01:32:27;;;;;;;;;;;23.00;37.50;;;;;;1531281;77;1949;-73
2021/01/11 01:34:28;;;;;;;;;;;22.90;37.40;;;;;;1530480;77;702;-72
2021/01/11 01:36:30;;;;;;;;;;;22.90;37.30;;;;;;1534154;76;754;-70
2021/01/11 01:38:32;;;;;;;;;;;23.00;37.30;;;;;;1529093;77;1165;-70
2021/01/11 01:40:34;;;;;;;;;;;22.90;37.40;;;;;;1534461;77;733;-74
2021/01/11 01:42:36;;;;;;;;;;;22.90;37.50;;;;;;1532366;77;666;-72
2021/01/11 01:44:38;;;;;;;;;;;22.80;37.50;;;;;;1536858;77;740;-72
2021/01/11 01:46:40;;;;;;;;;;;22.80;37.40;;;;;;1531752;77;772;-74
2021/01/11 01:48:42;;;;;;;;;;;22.90;37.60;;;;;;1533899;77;1207;-75
2021/01/11 01:50:43;;;;;;;;;;;22.90;37.50;;;;;;1533900;77;761;-71
2021/01/11 01:52:45;;;;;;;;;;;22.80;37.30;;;;;;1533832;77;1944;-71
2021/01/11 01:54:49;;;;;;;;;;;22.80;37.40;;;;;;1531979;77;707;-75
2021/01/11 01:56:50;;;;;;;;;;;22.80;37.40;;;;;;1536135;76;727;-72
2021/01/11 01:58:52;;;;;;;;;;;22.90;37.50;;;;;;1535276;77;1205;-74
2021/01/11 02:00:54;;;;;;;;;;;22.80;37.40;;;;;;1536604;77;800;-74
2021/01/11 02:02:56;;;;;;;;;;;22.80;37.40;;;;;;1534584;77;827;-73
2021/01/11 02:04:58;;;;;;;;;;;22.90;37.50;;;;;;1530265;76;713;-75
2021/01/11 02:07:01;;;;;;;;;;;22.80;37.30;;;;;;1529821;77;746;-72
2021/01/11 02:09:05;;;;;;;;;;;22.80;37.30;;;;;;1526288;77;1699;-73
2021/01/11 02:11:14;;;;;;;;;;;22.80;37.30;;;;;;1535691;77;753;-70
2021/01/11 02:13:27;;;;;;;;;;;22.80;37.30;;;;;;1536606;76;1936;-71
2021/01/11 02:15:42;;;;;;;;;;;22.80;37.30;;;;;;1530280;76;695;-71
2021/01/11 02:17:48;;;;;;;;;;;22.80;37.30;;;;;;1529181;77;727;-72
2021/01/11 02:19:51;;;;;;;;;;;22.80;37.30;;;;;;1531462;77;1162;-70
2021/01/11 02:22:07;;;;;;;;;;;22.80;37.30;;;;;;1528235;77;703;-71
2021/01/11 02:24:27;;;;;;;;;;;22.90;37.30;;;;;;1533745;77;708;-73
2021/01/11 02:26:31;;;;;;;;;;;22.80;37.20;;;;;;1535254;76;787;-70
2021/01/11 02:28:46;;;;;;;;;;;22.90;37.30;;;;;;1532316;77;1241;-74
2021/01/11 02:30:48;;;;;;;;;;;22.80;37.20;;;;;;1526646;77;1860;-71
2021/01/11 02:32:50;;;;;;;;;;;22.80;37.10;;;;;;1534313;77;1911;-71
2021/01/11 02:34:52;;;;;;;;;;;22.80;37.20;;;;;;1533465;77;764;-69
2021/01/11 02:36:55;;;;;;;;;;;22.90;37.30;;;;;;1534024;77;831;-69
2021/01/11 02:38:56;;;;;;;;;;;22.90;37.30;;;;;;1537785;77;1131;-70
2021/01/11 02:40:58;;;;;;;;;;;22.90;37.30;;;;;;1537398;77;757;-70
2021/01/11 02:43:00;;;;;;;;;;;22.80;37.30;;;;;;1532187;76;779;-70
2021/01/11 02:45:03;;;;;;;;;;;22.80;37.20;;;;;;1527490;76;801;-69
2021/01/11 02:47:04;;;;;;;;;;;22.80;37.20;;;;;;1534879;77;771;-70
2021/01/11 02:49:20;;;;;;;;;;;22.80;37.20;;;;;;1535343;77;1178;-69
2021/01/11 02:51:42;;;;;;;;;;;22.80;37.10;;;;;;1535639;77;738;-70
2021/01/11 02:53:45;;;;;;;;;;;22.80;37.20;;;;;;1531051;77;1986;-70
2021/01/11 02:55:49;;;;;;;;;;;22.80;37.10;;;;;;1533232;77;715;-73
2021/01/11 02:57:58;;;;;;;;;;;22.80;37.10;;;;;;1534646;77;690;-70
2021/01/11 03:00:01;;;;;;;;;;;22.80;37.10;;;;;;1537539;77;2122;-70
2021/01/11 03:02:07;;;;;;;;;;;22.90;37.10;;;;;;1529644;77;1723;-76
2021/01/11 03:04:10;;;;;;;;;;;22.80;37.00;;;;;;1529169;77;727;-70
2021/01/11 03:06:12;;;;;;;;;;;22.90;37.10;;;;;;1529701;77;763;-70
2021/01/11 03:08:14;;;;;;;;;;;22.90;37.10;;;;;;1534504;77;1065;-71
2021/01/11 03:10:16;;;;;;;;;;;22.80;37.10;;;;;;1532883;77;723;-70
2021/01/11 03:12:18;;;;;;;;;;;22.90;37.20;;;;;;1533018;77;716;-70
2021/01/11 03:14:20;;;;;;;;;;;22.90;37.20;;;;;;1534851;77;1936;-72
2021/01/11 03:16:22;;;;;;;;;;;22.90;37.10;;;;;;1536827;77;825;-74
2021/01/11 03:18:24;;;;;;;;;;;22.90;37.10;;;;;;1533731;76;1151;-73
2021/01/11 03:20:25;;;;;;;;;;;22.90;37.10;;;;;;1531057;77;730;-71
2021/01/11 03:22:27;;;;;;;;;;;22.90;37.00;;;;;;1532631;77;748;-71
2021/01/11 03:24:30;;;;;;;;;;;22.90;37.10;;;;;;1534939;77;588;-72
2021/01/11 03:26:32;;;;;;;;;;;22.90;37.00;;;;;;1530241;77;813;-71
2021/01/11 03:28:33;;;;;;;;;;;22.90;37.00;;;;;;1509921;77;1180;-72
2021/01/11 03:30:35;;;;;;;;;;;23.00;37.00;;;;;;1553040;75;745;-70
2021/01/11 03:32:37;;;;;;;;;;;22.90;36.90;;;;;;1547552;75;1927;-75
2021/01/11 03:34:39;;;;;;;;;;;22.90;36.90;;;;;;1557211;75;790;-71
2021/01/11 03:36:41;;;;;;;;;;;22.90;36.90;;;;;;1549612;75;770;-71
2021/01/11 03:39:02;;;;;;;;;;;22.90;36.90;;;;;;1550882;75;1134;-74
2021/01/11 03:41:04;;;;;;;;;;;22.90;36.90;;;;;;1578796;74;763;-71
2021/01/11 03:43:06;;;;;;;;;;;22.90;36.80;;;;;;1572612;75;747;-71
2021/01/11 03:45:08;;;;;;;;;;;22.90;36.80;;;;;;1537024;76;759;-71
2021/01/11 03:47:10;;;;;;;;;;;22.90;36.80;;;;;;1583292;75;734;-74
2021/01/11 03:49:12;;;;;;;;;;;22.90;36.80;;;;;;1572378;74;1189;-72
2021/01/11 03:51:14;;;;;;;;;;;23.00;36.80;;;;;;1531295;76;764;-70
2021/01/11 03:53:16;;;;;;;;;;;22.90;36.80;;;;;;1534504;76;1937;-76
2021/01/11 03:55:18;;;;;;;;;;;22.80;36.80;;;;;;1536860;77;826;-74
2021/01/11 03:57:20;;;;;;;;;;;22.90;37.00;;;;;;1536183;76;772;-73
2021/01/11 03:59:22;;;;;;;;;;;22.80;37.00;;;;;;1581509;75;1119;-72
2021/01/11 04:01:25;;;;;;;;;;;22.80;37.00;;;;;;1583822;74;888;-72
2021/01/11 04:03:27;;;;;;;;;;;22.80;37.10;;;;;;1585211;75;689;-73
2021/01/11 04:05:29;;;;;;;;;;;22.90;37.40;;;;;;1586917;74;766;-72
2021/01/11 04:07:31;;;;;;;;;;;22.80;37.30;;;;;;1589209;73;759;-75
2021/01/11 04:09:33;;;;;;;;;;;22.80;37.40;;;;;;1584823;74;1124;-71
2021/01/11 04:11:34;;;;;;;;;;;22.80;37.50;;;;;;1589458;73;737;-71
2021/01/11 04:13:36;;;;;;;;;;;22.80;37.60;;;;;;1579166;74;1947;-70
2021/01/11 04:15:38;;;;;;;;;;;22.80;37.60;;;;;;1586683;74;783;-69
2021/01/11 04:17:40;;;;;;;;;;;22.80;37.80;;;;;;1577174;74;812;-71
2021/01/11 04:19:42;;;;;;;;;;;22.80;37.80;;;;;;1587434;73;1150;-70
2021/01/11 04:21:44;;;;;;;;;;;22.80;38.00;;;;;;1586771;73;794;-71
2021/01/11 04:23:46;;;;;;;;;;;22.70;38.00;;;;;;1586730;74;838;-71
2021/01/11 04:25:47;;;;;;;;;;;22.70;38.20;;;;;;1548296;76;718;-72
2021/01/11 04:27:49;;;;;;;;;;;22.60;38.20;;;;;;1547473;75;785;-72
2021/01/11 04:29:51;;;;;;;;;;;22.60;38.30;;;;;;1538767;77;1155;-72
2021/01/11 04:31:53;;;;;;;;;;;22.60;38.30;;;;;;1538535;76;749;-71
2021/01/11 04:33:55;;;;;;;;;;;22.60;38.40;;;;;;1536929;76;1953;-71
2021/01/11 04:35:57;;;;;;;;;;;22.60;38.40;;;;;;1538779;76;736;-70
2021/01/11 04:37:59;;;;;;;;;;;22.60;38.50;;;;;;1538927;77;872;-70
2021/01/11 04:40:01;;;;;;;;;;;22.60;38.40;;;;;;1529907;76;1122;-72
2021/01/11 04:42:06;;;;;;;;;;;22.60;38.50;;;;;;1531773;76;952;-72
2021/01/11 04:44:08;;;;;;;;;;;22.60;38.50;;;;;;1536648;77;772;-74
2021/01/11 04:46:10;;;;;;;;;;;22.60;38.60;;;;;;1572904;75;794;-73
2021/01/11 04:48:12;;;;;;;;;;;22.60;38.70;;;;;;1584119;74;787;-74
2021/01/11 04:50:14;;;;;;;;;;;22.60;38.60;;;;;;1586820;74;1112;-69
2021/01/11 04:52:16;;;;;;;;;;;22.60;38.60;;;;;;1579935;74;769;-72
2021/01/11 04:54:21;;;;;;;;;;;22.60;38.60;;;;;;1565785;75;1937;-74
2021/01/11 04:56:23;;;;;;;;;;;22.60;38.60;;;;;;1516308;77;690;-72
2021/01/11 04:58:24;;;;;;;;;;;22.60;38.60;;;;;;1539610;76;630;-73
2021/01/11 05:00:27;;;;;;;;;;;22.60;38.70;;;;;;1524378;77;1065;-72
2021/01/11 05:02:29;;;;;;;;;;;22.60;38.60;;;;;;1532220;76;781;-72
2021/01/11 05:04:31;;;;;;;;;;;22.70;38.70;;;;;;1541780;76;727;-73
2021/01/11 05:06:33;;;;;;;;;;;22.70;39.20;;;;;;1540904;76;720;-73
2021/01/11 05:08:35;;;;;;;;;;;22.70;39.20;;;;;;1537420;77;711;-71
2021/01/11 05:10:37;;;;;;;;;;;22.70;39.20;;;;;;1540815;76;1154;-72
2021/01/11 05:12:39;;;;;;;;;;;22.70;39.30;;;;;;1539598;76;911;-71
2021/01/11 05:14:42;;;;;;;;;;;22.80;39.20;;;;;;1541430;76;1921;-76
2021/01/11 05:16:45;;;;;;;;;;;22.80;39.00;;;;;;1540651;76;789;-72
2021/01/11 05:18:47;;;;;;;;;;;22.80;39.20;;;;;;1534471;76;1789;-73
2021/01/11 05:20:49;;;;;;;;;;;22.80;39.20;;;;;;1541899;76;765;-73
2021/01/11 05:22:52;;;;;;;;;;;22.80;39.20;;;;;;1540794;76;821;-74
2021/01/11 05:24:54;;;;;;;;;;;22.80;39.20;;;;;;1540122;76;770;-73
2021/01/11 05:26:57;;;;;;;;;;;22.80;39.10;;;;;;1542580;76;779;-72
2021/01/11 05:29:00;;;;;;;;;;;22.80;39.20;;;;;;1542822;76;1186;-70
2021/01/11 05:31:02;;;;;;;;;;;22.80;39.20;;;;;;1532471;76;1851;-69
2021/01/11 05:33:04;;;;;;;;;;;22.80;39.20;;;;;;1529023;76;912;-68
2021/01/11 05:35:07;;;;;;;;;;;22.80;39.10;;;;;;1538211;76;1943;-70
2021/01/11 05:37:08;;;;;;;;;;;22.80;39.10;;;;;;1536544;76;775;-69
2021/01/11 05:39:10;;;;;;;;;;;22.80;39.00;;;;;;1541377;77;1130;-70
2021/01/11 05:41:14;;;;;;;;;;;22.80;39.20;;;;;;1541335;76;780;-70
2021/01/11 05:43:19;;;;;;;;;;;22.80;39.00;;;;;;1540402;76;1811;-70
2021/01/11 05:45:27;;;;;;;;;;;22.80;38.90;;;;;;1533196;76;757;-70
2021/01/11 05:47:28;;;;;;;;;;;22.80;39.00;;;;;;1538465;76;1664;-69
2021/01/11 05:49:30;;;;;;;;;;;22.80;39.00;;;;;;1540463;76;1150;-70
2021/01/11 05:51:32;;;;;;;;;;;22.90;39.20;;;;;;1538998;76;728;-67
2021/01/11 05:53:35;;;;;;;;;;;22.80;39.00;;;;;;1541138;76;1931;-69
2021/01/11 05:55:37;;;;;;;;;;;22.90;39.10;;;;;;1515424;78;1209;-67
2021/01/11 05:57:39;;;;;;;;;;;22.90;39.00;;;;;;1535109;76;764;-69
2021/01/11 05:59:41;;;;;;;;;;;22.90;39.10;;;;;;1539117;76;1182;-69
2021/01/11 06:01:42;;;;;;;;;;;22.80;39.00;;;;;;1541989;76;766;-70
2021/01/11 06:03:44;;;;;;;;;;;22.80;39.00;;;;;;1538354;76;773;-68
2021/01/11 06:05:46;;;;;;;;;;;22.90;39.10;;;;;;1520134;76;768;-70
2021/01/11 06:07:48;;;;;;;;;;;22.80;38.90;;;;;;1541657;76;764;-70
2021/01/11 06:09:50;;;;;;;;;;;22.80;39.00;;;;;;1541792;76;1147;-70
2021/01/11 06:11:52;;;;;;;;;;;22.90;39.20;;;;;;1524568;76;787;-72
2021/01/11 06:13:54;;;;;;;;;;;22.90;39.20;;;;;;1542666;76;1906;-69
2021/01/11 06:15:56;;;;;;;;;;;22.90;39.20;;;;;;1538995;76;748;-70
2021/01/11 06:17:58;;;;;;;;;;;22.90;39.10;;;;;;1539337;76;789;-71
2021/01/11 06:20:00;;;;;;;;;;;22.90;39.20;;;;;;1533802;76;1114;-69
2021/01/11 06:22:02;;;;;;;;;;;22.90;39.10;;;;;;1541721;76;707;-69
2021/01/11 06:24:13;;;;;;;;;;;22.90;39.10;;;;;;1542045;76;770;-66
2021/01/11 06:26:29;;;;;;;;;;;22.80;39.00;;;;;;1541527;76;806;-69
2021/01/11 06:28:32;;;;;;;;;;;22.90;39.20;;;;;;1534340;77;760;-69
2021/01/11 06:30:39;;;;;;;;;;;22.90;39.00;;;;;;1541637;76;1063;-68
2021/01/11 06:32:39;;;;;;;;;;;22.90;39.30;;;;;;1541539;76;1369;-69
2021/01/11 06:34:41;;;;;;;;;;;22.90;39.10;;;;;;1540653;76;1943;-72
2021/01/11 06:36:43;;;;;;;;;;;22.90;39.10;;;;;;1541067;76;809;-69
2021/01/11 06:38:45;;;;;;;;;;;22.90;39.10;;;;;;1541473;76;1122;-71
2021/01/11 06:40:48;;;;;;;;;;;22.90;39.00;;;;;;1543281;76;777;-69
2021/01/11 06:42:52;;;;;;;;;;;22.90;39.00;;;;;;1541285;76;1934;-69
2021/01/11 06:44:54;;;;;;;;;;;23.00;38.80;;;;;;1537587;77;1578;-69
2021/01/11 06:46:56;;;;;;;;;;;23.00;38.80;;;;;;1532440;76;712;-69
2021/01/11 06:48:58;;;;;;;;;;;23.00;38.70;;;;;;1537036;76;1174;-69
2021/01/11 06:51:01;;;;;;;;;;;23.00;38.60;;;;;;1536470;77;701;-70
2021/01/11 06:53:03;;;;;;;;;;;23.00;38.60;;;;;;1537370;77;1821;-70
2021/01/11 06:55:09;;;;;;;;;;;23.00;38.60;;;;;;1542496;76;1937;-69
2021/01/11 06:57:17;;;;;;;;;;;23.10;38.80;;;;;;1541668;76;1769;-70
2021/01/11 06:59:19;;;;;;;;;;;23.00;38.60;;;;;;1540678;76;1159;-69
2021/01/11 07:01:21;;;;;;;;;;;23.00;38.60;;;;;;1544589;76;759;-68
2021/01/11 07:03:24;;;;;;;;;;;23.10;38.70;;;;;;1511306;78;1387;-69
2021/01/11 07:05:36;;;;;;;;;;;23.10;38.60;;;;;;1512428;77;1183;-67
2021/01/11 07:07:38;;;;;;;;;;;23.00;38.50;;;;;;1534573;76;736;-68
2021/01/11 07:09:42;;;;;;;;;;;23.00;38.50;;;;;;1541148;76;1139;-69
2021/01/11 07:11:45;;;;;;;;;;;23.00;38.40;;;;;;1540140;76;1865;-70
2021/01/11 07:13:47;;;;;;;;;;;23.00;38.50;;;;;;1540704;76;1824;-70
2021/01/11 07:15:53;;;;;;;;;;;23.00;38.40;;;;;;1536456;76;1940;-69
2021/01/11 07:17:55;;;;;;;;;;;23.10;38.60;;;;;;1538484;76;709;-69
2021/01/11 07:19:57;;;;;;;;;;;23.10;38.50;;;;;;1525528;76;1138;-69
2021/01/11 07:21:59;;;;;;;;;;;23.10;38.50;;;;;;1536327;76;770;-71
2021/01/11 07:24:02;;;;;;;;;;;23.10;38.40;;;;;;1533577;76;816;-69
2021/01/11 07:26:07;;;;;;;;;;;23.20;38.40;;;;;;1534514;76;760;-68
2021/01/11 07:28:07;;;;;;;;;;;23.20;38.30;;;;;;1536405;76;1678;-69
2021/01/11 07:30:10;;;;;;;;;;;23.20;38.20;;;;;;1534976;76;1122;-68
2021/01/11 07:32:14;;;;;;;;;;;23.30;38.30;;;;;;1537755;76;811;-69
2021/01/11 07:34:17;;;;;;;;;;;23.20;38.10;;;;;;1532736;76;1919;-68
2021/01/11 07:36:22;;;;;;;;;;;23.20;38.10;;;;;;1539188;76;757;-68
2021/01/11 07:38:23;;;;;;;;;;;23.20;38.10;;;;;;1530765;76;725;-69
2021/01/11 07:40:25;;;;;;;;;;;23.20;38.10;;;;;;1518731;77;1167;-69
2021/01/11 07:42:27;;;;;;;;;;;23.20;38.00;;;;;;1536398;76;768;-68
2021/01/11 07:44:34;;;;;;;;;;;23.20;37.90;;;;;;1525393;76;1080;-69
2021/01/11 07:46:33;;;;;;;;;;;23.20;37.90;;;;;;1529919;76;1295;-69
2021/01/11 07:48:35;;;;;;;;;;;23.20;37.90;;;;;;1531068;76;752;-69
2021/01/11 07:50:37;;;;;;;;;;;23.20;37.90;;;;;;1542080;76;1130;-68
2021/01/11 07:52:38;;;;;;;;;;;23.30;38.00;;;;;;1543878;76;742;-69
2021/01/11 07:54:40;;;;;;;;;;;23.30;38.10;;;;;;1536676;76;1933;-71
2021/01/11 07:56:42;;;;;;;;;;;23.20;38.10;;;;;;1539674;76;767;-70
2021/01/11 07:58:45;;;;;;;;;;;23.20;38.20;;;;;;1539387;76;1211;-70
2021/01/11 08:00:47;;;;;;;;;;;23.30;38.20;;;;;;1515124;76;1258;-69
2021/01/11 08:02:49;;;;;;;;;;;23.20;38.10;;;;;;1539970;76;804;-69
2021/01/11 08:04:51;;;;;;;;;;;23.20;38.10;;;;;;1536759;76;791;-71
2021/01/11 08:06:54;;;;;;;;;;;23.20;38.20;;;;;;1539761;76;749;-70
2021/01/11 08:08:56;;;;;;;;;;;23.20;38.20;;;;;;1537235;76;1148;-69
2021/01/11 08:11:02;;;;;;;;;;;23.20;38.20;;;;;;1540412;76;747;-70
2021/01/11 08:13:11;;;;;;;;;;;23.20;38.20;;;;;;1540705;76;2126;-67
2021/01/11 08:15:13;;;;;;;;;;;23.10;38.20;;;;;;1540201;77;1928;-71
2021/01/11 08:17:16;;;;;;;;;;;23.10;38.50;;;;;;1540109;76;763;-71
2021/01/11 08:19:18;;;;;;;;;;;23.10;38.60;;;;;;1545841;76;1111;-70
2021/01/11 08:21:20;;;;;;;;;;;23.10;38.70;;;;;;1525578;77;1433;-71
2021/01/11 08:23:22;;;;;;;;;;;23.10;38.70;;;;;;1515112;77;730;-72
2021/01/11 08:25:24;;;;;;;;;;;23.10;38.80;;;;;;1534124;76;698;-72
2021/01/11 08:27:30;;;;;;;;;;;23.10;38.60;;;;;;1541877;77;848;-70
2021/01/11 08:29:33;;;;;;;;;;;23.20;38.60;;;;;;1541768;77;1142;-72
2021/01/11 08:31:37;;;;;;;;;;;23.20;38.60;;;;;;1536438;77;767;-70
2021/01/11 08:33:39;;;;;;;;;;;23.20;38.60;;;;;;1542217;76;746;-70
2021/01/11 08:35:40;;;;;;;;;;;23.20;38.60;;;;;;1547567;75;1924;-71
2021/01/11 08:37:43;;;;;;;;;;;23.20;38.40;;;;;;1542543;75;700;-69
2021/01/11 08:39:47;;;;;;;;;;;23.20;38.80;;;;;;1538379;77;1179;-69
2021/01/11 08:41:50;;;;;;;;;;;23.10;38.80;;;;;;1527921;76;1849;-69
2021/01/11 08:43:51;;;;;;;;;;;23.10;38.80;;;;;;1529823;77;703;-66
2021/01/11 08:45:53;;;;;;;;;;;23.10;38.80;;;;;;1543166;76;729;-65
2021/01/11 08:48:01;;;;;;;;;;;23.10;38.60;;;;;;1516069;78;630;-66
2021/01/11 08:50:05;;;;;;;;;;;23.30;38.10;;;;;;1538884;76;1175;-65
2021/01/11 08:52:08;;;;;;;;;;;23.40;37.50;;;;;;1537133;77;769;-65
2021/01/11 08:54:10;;;;;;;;;;;23.40;37.10;;;;;;1539839;76;1921;-66
2021/01/11 08:56:12;;;;;;;;;;;23.50;36.80;;;;;;1541136;76;1955;-66
2021/01/11 08:58:14;;;;;;;;;;;23.40;36.40;;;;;;1541024;76;784;-65
2021/01/11 09:00:16;;;;;;;;;;;23.50;36.30;;;;;;1509269;78;1187;-67
2021/01/11 09:02:21;;;;;;;;;;;23.50;36.20;;;;;;1542852;76;709;-68
2021/01/11 09:04:33;;;;;;;;;;;23.40;36.00;;;;;;1550846;76;770;-65
2021/01/11 09:06:46;;;;;;;;;;;23.40;35.70;;;;;;1541212;76;755;-64
2021/01/11 09:08:47;;;;;;;;;;;23.40;36.00;;;;;;1535149;76;1521;-64
2021/01/11 09:10:49;;;;;;;;;;;23.40;35.80;;;;;;1541516;76;766;-64
2021/01/11 09:12:51;;;;;;;;;;;23.40;35.70;;;;;;1533495;76;824;-65
2021/01/11 09:14:53;;;;;;;;;;;23.40;35.70;;;;;;1540769;76;1939;-65
2021/01/11 09:16:57;;;;;;;;;;;23.40;35.50;;;;;;1541549;76;740;-64
2021/01/11 09:19:11;;;;;;;;;;;23.30;35.40;;;;;;1546822;76;1664;-65
2021/01/11 09:21:15;;;;;;;;;;;23.30;35.20;;;;;;1538426;76;852;-65
2021/01/11 09:23:16;;;;;;;;;;;23.20;34.90;;;;;;1529462;76;1895;-66
2021/01/11 09:25:18;;;;;;;;;;;23.20;34.70;;;;;;1542136;76;738;-65
2021/01/11 09:27:20;;;;;;;;;;;23.20;34.50;;;;;;1539290;76;741;-65
2021/01/11 09:29:22;;;;;;;;;;;23.20;34.40;;;;;;1529599;76;1188;-65
2021/01/11 09:31:24;;;;;;;;;;;23.20;34.20;;;;;;1536916;76;756;-67
2021/01/11 09:33:26;;;;;;;;;;;23.30;34.40;;;;;;1539235;76;738;-66
2021/01/11 09:35:28;;;;;;;;;;;23.20;34.30;;;;;;1540580;76;1944;-63
2021/01/11 09:37:30;;;;;;;;;;;23.20;34.20;;;;;;1540164;77;807;-65
2021/01/11 09:39:32;;;;;;;;;;;23.20;34.10;;;;;;1539253;71;2086;-74
2021/01/11 09:41:35;;;;;;;;;;;23.10;33.90;;;;;;1569362;74;757;-73
2021/01/11 09:43:37;;;;;;;;;;;23.20;33.80;;;;;;1567456;74;1574;-74
2021/01/11 09:45:39;;;;;;;;;;;23.20;33.60;;;;;;1536491;76;755;-71
2021/01/11 09:47:41;;;;;;;;;;;23.10;33.40;;;;;;1589381;73;801;-73
2021/01/11 09:49:43;;;;;;;;;;;23.20;33.30;;;;;;1567877;74;1219;-74
2021/01/11 09:51:45;;;;;;;;;;;23.10;33.40;;;;;;1535376;76;732;-73
2021/01/11 09:53:47;;;;;;;;;;;23.10;33.60;;;;;;1535296;76;791;-73
2021/01/11 09:55:48;;;;;;;;;;;23.10;33.70;;;;;;1548683;75;1939;-69
2021/01/11 09:57:50;;;;;;;;;;;23.10;33.80;;;;;;1541171;75;713;-73
2021/01/11 09:59:52;;;;;;;;;;;23.10;33.80;;;;;;1533820;76;1210;-73
2021/01/11 10:01:54;;;;;;;;;;;23.10;33.70;;;;;;1578436;73;746;-73
2021/01/11 10:03:56;;;;;;;;;;;23.10;33.70;;;;;;1585077;73;770;-73
2021/01/11 10:05:58;;;;;;;;;;;23.10;33.70;;;;;;1586908;73;763;-73
2021/01/11 10:08:00;;;;;;;;;;;23.10;33.60;;;;;;1580526;73;691;-73
2021/01/11 10:10:02;;;;;;;;;;;23.10;33.60;;;;;;1577816;73;1147;-73
2021/01/11 10:12:05;;;;;;;;;;;23.10;33.70;;;;;;1582597;73;768;-70
2021/01/11 10:14:06;;;;;;;;;;;23.10;33.60;;;;;;1584002;73;732;-74
2021/01/11 10:16:08;;;;;;;;;;;23.10;33.50;;;;;;1587245;73;1937;-73
2021/01/11 10:18:10;;;;;;;;;;;23.10;33.60;;;;;;1580763;73;680;-73
2021/01/11 10:20:12;;;;;;;;;;;23.10;33.50;;;;;;1586848;74;1155;-74
2021/01/11 10:22:14;;;;;;;;;;;23.10;33.50;;;;;;1585991;73;766;-72
2021/01/11 10:24:16;;;;;;;;;;;23.10;33.50;;;;;;1580208;73;810;-74
2021/01/11 10:26:20;;;;;;;;;;;23.10;33.50;;;;;;1577572;75;792;-74
2021/01/11 10:28:21;;;;;;;;;;;23.10;33.40;;;;;;1566296;73;1022;-71
2021/01/11 10:30:23;;;;;;;;;;;23.20;33.40;;;;;;1583935;73;1117;-73
2021/01/11 10:32:25;;;;;;;;;;;23.10;33.30;;;;;;1596738;73;815;-72
2021/01/11 10:34:27;;;;;;;;;;;23.10;33.30;;;;;;1579375;73;952;-73
2021/01/11 10:36:31;;;;;;;;;;;23.10;33.10;;;;;;1580370;73;1944;-77
2021/01/11 10:38:33;;;;;;;;;;;23.00;33.20;;;;;;1585453;73;2020;-75
2021/01/11 10:40:34;;;;;;;;;;;23.00;33.30;;;;;;1581590;73;1091;-74
2021/01/11 10:42:36;;;;;;;;;;;23.10;33.60;;;;;;1586160;73;699;-74
2021/01/11 10:44:38;;;;;;;;;;;23.10;33.50;;;;;;1575724;75;737;-73
2021/01/11 10:46:40;;;;;;;;;;;23.20;33.40;;;;;;1575265;73;740;-74
2021/01/11 10:48:42;;;;;;;;;;;23.10;33.40;;;;;;1580989;73;754;-72
2021/01/11 10:50:44;;;;;;;;;;;23.10;33.20;;;;;;1572628;73;1033;-74
2021/01/11 10:52:46;;;;;;;;;;;23.10;33.40;;;;;;1574872;73;783;-73
2021/01/11 10:54:48;;;;;;;;;;;23.10;33.40;;;;;;1581089;73;711;-73
2021/01/11 10:56:51;;;;;;;;;;;23.10;33.30;;;;;;1570395;73;1938;-73
2021/01/11 10:58:53;;;;;;;;;;;23.20;33.30;;;;;;1578264;73;797;-75
2021/01/11 11:00:55;;;;;;;;;;;23.10;33.20;;;;;;1584735;75;1090;-76
2021/01/11 11:02:56;;;;;;;;;;;23.20;33.10;;;;;;1590014;73;762;-75
2021/01/11 11:04:58;;;;;;;;;;;23.20;33.20;;;;;;1582313;73;732;-75
2021/01/11 11:07:00;;;;;;;;;;;23.20;33.10;;;;;;1583958;73;753;-75
2021/01/11 11:09:02;;;;;;;;;;;23.20;32.90;;;;;;1566206;73;1137;-73
2021/01/11 11:11:04;;;;;;;;;;;23.20;32.20;;;;;;1577376;73;759;-71
2021/01/11 11:13:06;;;;;;;;;;;23.20;32.70;;;;;;1568603;73;689;-72
2021/01/11 11:15:08;;;;;;;;;;;23.00;32.70;;;;;;1584889;74;853;-74
2021/01/11 11:17:14;;;;;;;;;;;23.00;33.10;;;;;;1587734;73;1921;-75
2021/01/11 11:19:13;;;;;;;;;;;23.10;33.30;;;;;;1586277;73;1411;-76
2021/01/11 11:21:15;;;;;;;;;;;23.20;33.10;;;;;;1581902;75;787;-76
2021/01/11 11:23:17;;;;;;;;;;;23.20;33.00;;;;;;1580267;73;736;-73
2021/01/11 11:25:19;;;;;;;;;;;23.30;33.00;;;;;;1555824;76;1217;-73
2021/01/11 11:27:21;;;;;;;;;;;23.30;32.90;;;;;;1581138;73;787;-71
2021/01/11 11:29:23;;;;;;;;;;;23.30;32.70;;;;;;1574980;73;1158;-73
2021/01/11 11:31:25;;;;;;;;;;;23.30;32.80;;;;;;1574510;73;730;-74
2021/01/11 11:33:26;;;;;;;;;;;23.40;32.70;;;;;;1586318;73;711;-75
2021/01/11 11:35:29;;;;;;;;;;;23.40;32.60;;;;;;1584830;73;933;-74
2021/01/11 11:37:32;;;;;;;;;;;23.40;32.60;;;;;;1582186;73;748;-74
2021/01/11 11:39:34;;;;;;;;;;;23.40;32.60;;;;;;1581682;73;1146;-74
2021/01/11 11:41:36;;;;;;;;;;;23.40;32.60;;;;;;1586043;73;786;-74
2021/01/11 11:43:38;;;;;;;;;;;23.30;32.40;;;;;;1587906;73;819;-74
2021/01/11 11:45:42;;;;;;;;;;;23.30;32.60;;;;;;1588730;73;727;-74
2021/01/11 11:47:44;;;;;;;;;;;23.40;32.60;;;;;;1583993;73;769;-75
2021/01/11 11:49:46;;;;;;;;;;;23.50;32.50;;;;;;1588623;73;1138;-74
2021/01/11 11:51:48;;;;;;;;;;;23.40;32.50;;;;;;1586682;73;782;-74
2021/01/11 11:53:49;;;;;;;;;;;23.40;32.60;;;;;;1589285;73;765;-73
2021/01/11 11:55:51;;;;;;;;;;;23.40;32.40;;;;;;1593624;73;1925;-73
2021/01/11 11:57:53;;;;;;;;;;;23.40;32.40;;;;;;1593182;73;784;-72
2021/01/11 11:59:55;;;;;;;;;;;23.40;32.40;;;;;;1585784;73;1131;-74
2021/01/11 12:01:57;;;;;;;;;;;23.40;32.30;;;;;;1597848;73;727;-74
2021/01/11 12:03:59;;;;;;;;;;;23.40;32.30;;;;;;1597373;73;669;-73
2021/01/11 12:06:01;;;;;;;;;;;23.40;32.30;;;;;;1597330;73;741;-73
2021/01/11 12:08:03;;;;;;;;;;;23.40;32.20;;;;;;1598216;73;675;-74
2021/01/11 12:10:06;;;;;;;;;;;23.40;32.20;;;;;;1600285;73;1137;-75
2021/01/11 12:12:08;;;;;;;;;;;23.40;32.20;;;;;;1598374;73;756;-74